Estación Meteorológica Peña el Pijo (Robertgarden) [ 07/19/24 12:45:33 CEST ]

Fecha Hora Presion(HPa) Temp (°C) Humedad % Rocio (°C) Viento ( m/s) Direccion Lluvia 1Hora(mm) Lluvia 24H(mm) LLuvia Total(mm)
2009-Jun-06 01:01:14 1005.600 13.9 62 6.7         335.14
2009-Jun-06 02:01:15 1005.100 12.9 63 6.0         335.14
2009-Jun-06 03:04:16 1004.600 12.8 60 5.2         335.14
2009-Jun-06 04:01:13 1004.200 11.9 59 4.1         335.14
2009-Jun-06 05:01:14 1004.100 11.8 60 4.3         335.14
2009-Jun-06 06:01:12 1003.900 11.8 60 4.3         335.14
2009-Jun-06 07:01:14 1004.100 11.8 60 4.3         335.14
2009-Jun-06 08:01:11 1003.700 12.0 60 4.5 0.6 SE     335.14
2009-Jun-06 09:01:14 1004.400 13.2 56 4.6         335.14
2009-Jun-06 10:01:13 1004.800 14.1 56 5.5         335.14
2009-Jun-06 11:01:11 1005.000 14.3 56 5.6         335.14
2009-Jun-06 12:01:15 1005.500 15.8 53 6.2 1.9 SSW     335.14
2009-Jun-06 13:01:12 1005.400 17.4 49 6.5         335.14
2009-Jun-06 14:01:16 1005.300 18.8 42 5.6         335.14
2009-Jun-06 15:01:14 1004.900 19.6 39 5.2 2.9 S     335.14
2009-Jun-06 16:01:21 1005.100 17.8 45 5.6         335.14
2009-Jun-06 17:01:11 1004.500 19.4 45 7.1 0.7 WSW     335.14
2009-Jun-06 18:01:14 1004.000 20.9 36 5.2         335.14
2009-Jun-06 19:01:12 1003.600 20.2 34 3.7 1.8 SSW     335.14
2009-Jun-06 20:01:11 1004.100 16.9 43 4.2         335.14
2009-Jun-06 21:01:12 1005.300 11.8 74 7.3     1.03 1.03 336.18
2009-Jun-06 22:01:11 1006.200 10.9 76 6.8       1.03 336.18
2009-Jun-06 23:01:13 1006.100 8.9 80 5.6       1.03 336.18

Temperatura Máxima:20°    Temperatura Mínima:
Presión Máxima:1006.200 Hpa    Presión Mínima:1003.600 Hpa


Volver